sensor_id;sensor_type;location;lat;lon;timestamp;P1;P2;P0
12542;PMS3003;6337;49.556;25.594;2023-09-19T00:01:56;13.90;6.70;
12542;PMS3003;6337;49.556;25.594;2023-09-19T00:04:26;12.57;6.53;
12542;PMS3003;6337;49.556;25.594;2023-09-19T00:06:54;14.47;6.30;
12542;PMS3003;6337;49.556;25.594;2023-09-19T00:09:21;10.90;6.60;
12542;PMS3003;6337;49.556;25.594;2023-09-19T00:11:52;7.77;6.60;
12542;PMS3003;6337;49.556;25.594;2023-09-19T00:14:19;8.30;6.23;
12542;PMS3003;6337;49.556;25.594;2023-09-19T00:16:49;11.77;7.30;
12542;PMS3003;6337;49.556;25.594;2023-09-19T00:19:17;9.40;6.47;
12542;PMS3003;6337;49.556;25.594;2023-09-19T00:21:47;9.53;6.23;
12542;PMS3003;6337;49.556;25.594;2023-09-19T00:24:15;12.50;6.00;
12542;PMS3003;6337;49.556;25.594;2023-09-19T00:26:43;14.70;6.10;
12542;PMS3003;6337;49.556;25.594;2023-09-19T00:29:12;11.57;6.00;
12542;PMS3003;6337;49.556;25.594;2023-09-19T00:31:42;10.53;5.83;
12542;PMS3003;6337;49.556;25.594;2023-09-19T00:34:10;9.03;6.23;
12542;PMS3003;6337;49.556;25.594;2023-09-19T00:36:38;9.57;6.60;
12542;PMS3003;6337;49.556;25.594;2023-09-19T00:39:09;10.90;7.07;
12542;PMS3003;6337;49.556;25.594;2023-09-19T00:41:38;14.10;5.80;
12542;PMS3003;6337;49.556;25.594;2023-09-19T00:44:06;13.87;6.33;
12542;PMS3003;6337;49.556;25.594;2023-09-19T00:46:34;9.60;6.53;
12542;PMS3003;6337;49.556;25.594;2023-09-19T00:49:02;21.43;8.17;
12542;PMS3003;6337;49.556;25.594;2023-09-19T00:51:30;8.67;6.80;
12542;PMS3003;6337;49.556;25.594;2023-09-19T00:53:58;10.60;6.70;
12542;PMS3003;6337;49.556;25.594;2023-09-19T00:56:27;10.93;5.63;
12542;PMS3003;6337;49.556;25.594;2023-09-19T00:58:55;18.13;7.03;
12542;PMS3003;6337;49.556;25.594;2023-09-19T01:01:25;11.77;7.87;
12542;PMS3003;6337;49.556;25.594;2023-09-19T01:03:53;7.67;6.00;
12542;PMS3003;6337;49.556;25.594;2023-09-19T01:06:21;18.57;5.83;
12542;PMS3003;6337;49.556;25.594;2023-09-19T01:08:52;7.70;5.60;
12542;PMS3003;6337;49.556;25.594;2023-09-19T01:11:21;8.20;5.67;
12542;PMS3003;6337;49.556;25.594;2023-09-19T01:14:00;14.47;7.80;
12542;PMS3003;6337;49.556;25.594;2023-09-19T01:16:35;12.23;6.77;
12542;PMS3003;6337;49.556;25.594;2023-09-19T01:19:15;11.37;7.20;
12542;PMS3003;6337;49.556;25.594;2023-09-19T01:21:55;19.70;7.03;
12542;PMS3003;6337;49.556;25.594;2023-09-19T01:24:34;19.67;6.60;
12542;PMS3003;6337;49.556;25.594;2023-09-19T01:27:23;18.10;8.13;
12542;PMS3003;6337;49.556;25.594;2023-09-19T01:30:09;11.80;7.50;
12542;PMS3003;6337;49.556;25.594;2023-09-19T01:32:36;8.40;6.50;
12542;PMS3003;6337;49.556;25.594;2023-09-19T01:35:04;13.63;7.20;
12542;PMS3003;6337;49.556;25.594;2023-09-19T01:37:33;10.10;6.77;
12542;PMS3003;6337;49.556;25.594;2023-09-19T01:40:03;11.77;7.87;
12542;PMS3003;6337;49.556;25.594;2023-09-19T01:42:43;13.07;7.40;
12542;PMS3003;6337;49.556;25.594;2023-09-19T01:45:16;10.37;6.77;
12542;PMS3003;6337;49.556;25.594;2023-09-19T01:47:49;17.93;6.33;
12542;PMS3003;6337;49.556;25.594;2023-09-19T01:50:23;8.90;6.40;
12542;PMS3003;6337;49.556;25.594;2023-09-19T01:52:57;7.60;6.80;
12542;PMS3003;6337;49.556;25.594;2023-09-19T01:55:31;15.47;7.10;
12542;PMS3003;6337;49.556;25.594;2023-09-19T01:58:04;21.03;6.93;
12542;PMS3003;6337;49.556;25.594;2023-09-19T02:00:36;20.33;6.57;
12542;PMS3003;6337;49.556;25.594;2023-09-19T02:03:08;9.47;7.50;
12542;PMS3003;6337;49.556;25.594;2023-09-19T02:05:41;16.20;7.83;
12542;PMS3003;6337;49.556;25.594;2023-09-19T02:08:18;11.00;6.83;
12542;PMS3003;6337;49.556;25.594;2023-09-19T02:10:46;8.07;6.47;
12542;PMS3003;6337;49.556;25.594;2023-09-19T02:13:14;11.33;6.97;
12542;PMS3003;6337;49.556;25.594;2023-09-19T02:15:46;8.43;7.50;
12542;PMS3003;6337;49.556;25.594;2023-09-19T02:18:17;12.53;7.03;
12542;PMS3003;6337;49.556;25.594;2023-09-19T02:20:45;12.70;7.50;
12542;PMS3003;6337;49.556;25.594;2023-09-19T02:23:12;13.80;7.73;
12542;PMS3003;6337;49.556;25.594;2023-09-19T02:25:42;11.03;7.20;
12542;PMS3003;6337;49.556;25.594;2023-09-19T02:28:11;12.77;7.93;
12542;PMS3003;6337;49.556;25.594;2023-09-19T02:30:38;13.07;7.30;
12542;PMS3003;6337;49.556;25.594;2023-09-19T02:33:08;11.40;7.20;
12542;PMS3003;6337;49.556;25.594;2023-09-19T02:35:35;8.83;6.80;
12542;PMS3003;6337;49.556;25.594;2023-09-19T02:38:02;10.33;6.83;
12542;PMS3003;6337;49.556;25.594;2023-09-19T02:40:31;13.00;7.97;
12542;PMS3003;6337;49.556;25.594;2023-09-19T02:43:01;10.23;7.70;
12542;PMS3003;6337;49.556;25.594;2023-09-19T02:45:30;14.97;8.80;
12542;PMS3003;6337;49.556;25.594;2023-09-19T02:47:57;12.23;7.60;
12542;PMS3003;6337;49.556;25.594;2023-09-19T02:50:27;19.40;8.53;
12542;PMS3003;6337;49.556;25.594;2023-09-19T02:52:54;12.73;7.40;
12542;PMS3003;6337;49.556;25.594;2023-09-19T02:55:22;17.07;6.87;
12542;PMS3003;6337;49.556;25.594;2023-09-19T02:57:50;23.17;7.27;
12542;PMS3003;6337;49.556;25.594;2023-09-19T03:00:20;18.43;8.37;
12542;PMS3003;6337;49.556;25.594;2023-09-19T03:02:49;17.70;7.60;
12542;PMS3003;6337;49.556;25.594;2023-09-19T03:05:17;13.23;8.63;
12542;PMS3003;6337;49.556;25.594;2023-09-19T03:07:48;14.77;7.70;
12542;PMS3003;6337;49.556;25.594;2023-09-19T03:10:18;17.37;8.70;
12542;PMS3003;6337;49.556;25.594;2023-09-19T03:12:46;15.30;8.37;
12542;PMS3003;6337;49.556;25.594;2023-09-19T03:15:14;22.10;8.53;
12542;PMS3003;6337;49.556;25.594;2023-09-19T03:17:42;10.70;7.97;
12542;PMS3003;6337;49.556;25.594;2023-09-19T03:20:10;9.63;7.17;
12542;PMS3003;6337;49.556;25.594;2023-09-19T03:22:39;12.60;9.37;
12542;PMS3003;6337;49.556;25.594;2023-09-19T03:25:08;13.33;8.20;
12542;PMS3003;6337;49.556;25.594;2023-09-19T03:27:37;9.87;7.63;
12542;PMS3003;6337;49.556;25.594;2023-09-19T03:30:05;16.70;8.90;
12542;PMS3003;6337;49.556;25.594;2023-09-19T03:32:35;17.50;8.33;
12542;PMS3003;6337;49.556;25.594;2023-09-19T03:35:02;12.50;9.60;
12542;PMS3003;6337;49.556;25.594;2023-09-19T03:37:30;17.43;9.30;
12542;PMS3003;6337;49.556;25.594;2023-09-19T03:39:59;16.43;10.23;
12542;PMS3003;6337;49.556;25.594;2023-09-19T03:42:31;13.93;9.20;
12542;PMS3003;6337;49.556;25.594;2023-09-19T03:45:01;22.97;10.60;
12542;PMS3003;6337;49.556;25.594;2023-09-19T03:47:32;15.33;9.40;
12542;PMS3003;6337;49.556;25.594;2023-09-19T03:50:01;14.50;10.60;
12542;PMS3003;6337;49.556;25.594;2023-09-19T03:52:30;22.00;11.43;
12542;PMS3003;6337;49.556;25.594;2023-09-19T03:54:59;18.07;10.70;
12542;PMS3003;6337;49.556;25.594;2023-09-19T03:57:26;15.83;7.80;
12542;PMS3003;6337;49.556;25.594;2023-09-19T03:59:56;23.17;8.20;
12542;PMS3003;6337;49.556;25.594;2023-09-19T04:02:23;9.77;7.27;
12542;PMS3003;6337;49.556;25.594;2023-09-19T04:04:50;15.23;7.80;
12542;PMS3003;6337;49.556;25.594;2023-09-19T04:07:19;12.40;7.80;
12542;PMS3003;6337;49.556;25.594;2023-09-19T04:09:47;11.80;8.30;
12542;PMS3003;6337;49.556;25.594;2023-09-19T04:12:16;10.00;7.23;
12542;PMS3003;6337;49.556;25.594;2023-09-19T04:14:44;11.43;6.60;
12542;PMS3003;6337;49.556;25.594;2023-09-19T04:17:13;10.73;8.40;
12542;PMS3003;6337;49.556;25.594;2023-09-19T04:19:40;17.07;8.20;
12542;PMS3003;6337;49.556;25.594;2023-09-19T04:22:07;13.13;6.87;
12542;PMS3003;6337;49.556;25.594;2023-09-19T04:24:36;10.57;7.10;
12542;PMS3003;6337;49.556;25.594;2023-09-19T04:27:04;9.80;7.07;
12542;PMS3003;6337;49.556;25.594;2023-09-19T04:29:34;15.30;7.80;
12542;PMS3003;6337;49.556;25.594;2023-09-19T04:32:03;12.70;7.87;
12542;PMS3003;6337;49.556;25.594;2023-09-19T04:34:32;13.57;8.90;
12542;PMS3003;6337;49.556;25.594;2023-09-19T04:37:01;22.20;8.03;
12542;PMS3003;6337;49.556;25.594;2023-09-19T04:39:28;12.43;7.80;
12542;PMS3003;6337;49.556;25.594;2023-09-19T04:41:56;11.70;8.47;
12542;PMS3003;6337;49.556;25.594;2023-09-19T04:44:25;15.10;8.00;
12542;PMS3003;6337;49.556;25.594;2023-09-19T04:46:53;16.00;8.20;
12542;PMS3003;6337;49.556;25.594;2023-09-19T04:49:21;8.47;7.43;
12542;PMS3003;6337;49.556;25.594;2023-09-19T04:51:50;12.87;8.20;
12542;PMS3003;6337;49.556;25.594;2023-09-19T04:54:18;12.20;8.10;
12542;PMS3003;6337;49.556;25.594;2023-09-19T04:56:47;28.77;7.77;
12542;PMS3003;6337;49.556;25.594;2023-09-19T04:59:14;13.80;8.47;
12542;PMS3003;6337;49.556;25.594;2023-09-19T05:01:42;14.20;7.50;
12542;PMS3003;6337;49.556;25.594;2023-09-19T05:04:09;12.83;7.50;
12542;PMS3003;6337;49.556;25.594;2023-09-19T05:06:36;13.00;8.03;
12542;PMS3003;6337;49.556;25.594;2023-09-19T05:09:05;10.43;8.30;
12542;PMS3003;6337;49.556;25.594;2023-09-19T05:11:33;28.13;8.03;
12542;PMS3003;6337;49.556;25.594;2023-09-19T05:14:02;15.80;8.93;
12542;PMS3003;6337;49.556;25.594;2023-09-19T05:16:30;18.23;8.13;
12542;PMS3003;6337;49.556;25.594;2023-09-19T05:18:58;11.17;8.23;
12542;PMS3003;6337;49.556;25.594;2023-09-19T05:21:26;14.53;8.60;
12542;PMS3003;6337;49.556;25.594;2023-09-19T05:23:55;15.97;9.20;
12542;PMS3003;6337;49.556;25.594;2023-09-19T05:26:24;16.13;9.17;
12542;PMS3003;6337;49.556;25.594;2023-09-19T05:28:51;18.50;7.97;
12542;PMS3003;6337;49.556;25.594;2023-09-19T05:31:19;25.57;8.00;
12542;PMS3003;6337;49.556;25.594;2023-09-19T05:33:46;14.03;7.80;
12542;PMS3003;6337;49.556;25.594;2023-09-19T05:36:13;22.53;7.00;
12542;PMS3003;6337;49.556;25.594;2023-09-19T05:38:41;10.33;7.27;
12542;PMS3003;6337;49.556;25.594;2023-09-19T05:41:10;13.87;8.87;
12542;PMS3003;6337;49.556;25.594;2023-09-19T05:43:40;9.17;8.03;
12542;PMS3003;6337;49.556;25.594;2023-09-19T05:46:08;11.93;7.27;
12542;PMS3003;6337;49.556;25.594;2023-09-19T05:48:37;10.67;7.60;
12542;PMS3003;6337;49.556;25.594;2023-09-19T05:51:06;11.23;6.93;
12542;PMS3003;6337;49.556;25.594;2023-09-19T05:53:35;15.37;7.63;
12542;PMS3003;6337;49.556;25.594;2023-09-19T05:56:02;16.33;8.03;
12542;PMS3003;6337;49.556;25.594;2023-09-19T05:58:29;12.17;7.50;
12542;PMS3003;6337;49.556;25.594;2023-09-19T06:01:02;15.97;8.17;
12542;PMS3003;6337;49.556;25.594;2023-09-19T06:03:33;15.53;8.07;
12542;PMS3003;6337;49.556;25.594;2023-09-19T06:06:01;15.90;8.13;
12542;PMS3003;6337;49.556;25.594;2023-09-19T06:08:28;15.30;8.87;
12542;PMS3003;6337;49.556;25.594;2023-09-19T06:11:01;8.50;6.67;
12542;PMS3003;6337;49.556;25.594;2023-09-19T06:13:34;11.00;6.90;
12542;PMS3003;6337;49.556;25.594;2023-09-19T06:16:06;23.43;8.47;
12542;PMS3003;6337;49.556;25.594;2023-09-19T06:18:34;13.43;7.37;
12542;PMS3003;6337;49.556;25.594;2023-09-19T06:21:02;13.17;6.77;
12542;PMS3003;6337;49.556;25.594;2023-09-19T06:23:32;18.30;7.90;
12542;PMS3003;6337;49.556;25.594;2023-09-19T06:26:00;12.80;6.67;
12542;PMS3003;6337;49.556;25.594;2023-09-19T06:28:28;10.00;6.80;
12542;PMS3003;6337;49.556;25.594;2023-09-19T06:30:58;14.77;7.43;
12542;PMS3003;6337;49.556;25.594;2023-09-19T06:33:27;11.40;8.00;
12542;PMS3003;6337;49.556;25.594;2023-09-19T06:35:56;22.63;8.00;
12542;PMS3003;6337;49.556;25.594;2023-09-19T06:38:25;14.60;8.40;
12542;PMS3003;6337;49.556;25.594;2023-09-19T06:40:53;17.43;8.17;
12542;PMS3003;6337;49.556;25.594;2023-09-19T06:43:21;18.53;8.80;
12542;PMS3003;6337;49.556;25.594;2023-09-19T06:45:49;15.33;8.40;
12542;PMS3003;6337;49.556;25.594;2023-09-19T06:48:18;14.87;7.20;
12542;PMS3003;6337;49.556;25.594;2023-09-19T06:50:47;12.30;7.50;
12542;PMS3003;6337;49.556;25.594;2023-09-19T06:53:14;16.30;7.03;
12542;PMS3003;6337;49.556;25.594;2023-09-19T06:55:42;10.90;6.90;
12542;PMS3003;6337;49.556;25.594;2023-09-19T06:58:12;11.47;7.10;
12542;PMS3003;6337;49.556;25.594;2023-09-19T07:00:41;17.13;7.37;
12542;PMS3003;6337;49.556;25.594;2023-09-19T07:03:09;8.17;7.10;
12542;PMS3003;6337;49.556;25.594;2023-09-19T07:05:37;12.80;6.77;
12542;PMS3003;6337;49.556;25.594;2023-09-19T07:08:06;22.63;7.10;
12542;PMS3003;6337;49.556;25.594;2023-09-19T07:10:35;16.67;6.37;
12542;PMS3003;6337;49.556;25.594;2023-09-19T07:13:03;12.33;7.00;
12542;PMS3003;6337;49.556;25.594;2023-09-19T07:15:34;15.80;9.13;
12542;PMS3003;6337;49.556;25.594;2023-09-19T07:18:04;11.30;6.60;
12542;PMS3003;6337;49.556;25.594;2023-09-19T07:20:32;11.57;6.20;
12542;PMS3003;6337;49.556;25.594;2023-09-19T07:23:00;8.27;5.57;
12542;PMS3003;6337;49.556;25.594;2023-09-19T07:25:29;10.53;6.80;
12542;PMS3003;6337;49.556;25.594;2023-09-19T07:27:56;19.03;6.50;
12542;PMS3003;6337;49.556;25.594;2023-09-19T07:30:25;13.23;6.30;
12542;PMS3003;6337;49.556;25.594;2023-09-19T07:32:52;14.27;6.00;
12542;PMS3003;6337;49.556;25.594;2023-09-19T07:35:20;15.40;6.93;
12542;PMS3003;6337;49.556;25.594;2023-09-19T07:37:48;12.60;6.50;
12542;PMS3003;6337;49.556;25.594;2023-09-19T07:40:16;6.83;5.90;
12542;PMS3003;6337;49.556;25.594;2023-09-19T07:42:45;8.53;5.93;
12542;PMS3003;6337;49.556;25.594;2023-09-19T07:45:13;8.27;5.80;
12542;PMS3003;6337;49.556;25.594;2023-09-19T07:47:43;8.87;6.30;
12542;PMS3003;6337;49.556;25.594;2023-09-19T07:50:11;20.83;6.93;
12542;PMS3003;6337;49.556;25.594;2023-09-19T07:52:39;6.90;6.17;
12542;PMS3003;6337;49.556;25.594;2023-09-19T07:55:09;7.40;5.67;
12542;PMS3003;6337;49.556;25.594;2023-09-19T07:57:42;6.90;5.27;
12542;PMS3003;6337;49.556;25.594;2023-09-19T08:00:12;36.27;6.10;
12542;PMS3003;6337;49.556;25.594;2023-09-19T08:02:41;15.27;6.33;
12542;PMS3003;6337;49.556;25.594;2023-09-19T08:05:09;9.20;5.47;
12542;PMS3003;6337;49.556;25.594;2023-09-19T08:07:42;12.80;6.20;
12542;PMS3003;6337;49.556;25.594;2023-09-19T08:10:14;7.37;5.57;
12542;PMS3003;6337;49.556;25.594;2023-09-19T08:12:44;9.33;5.80;
12542;PMS3003;6337;49.556;25.594;2023-09-19T08:15:14;9.20;6.87;
12542;PMS3003;6337;49.556;25.594;2023-09-19T08:17:42;6.23;5.57;
12542;PMS3003;6337;49.556;25.594;2023-09-19T08:20:10;10.33;6.20;
12542;PMS3003;6337;49.556;25.594;2023-09-19T08:22:42;9.10;6.20;
12542;PMS3003;6337;49.556;25.594;2023-09-19T08:25:11;8.70;5.90;
12542;PMS3003;6337;49.556;25.594;2023-09-19T08:27:38;10.30;6.33;
12542;PMS3003;6337;49.556;25.594;2023-09-19T08:30:07;8.23;5.17;
12542;PMS3003;6337;49.556;25.594;2023-09-19T08:32:37;19.37;6.80;
12542;PMS3003;6337;49.556;25.594;2023-09-19T08:35:04;12.20;5.47;
12542;PMS3003;6337;49.556;25.594;2023-09-19T08:37:34;17.07;6.10;
12542;PMS3003;6337;49.556;25.594;2023-09-19T08:40:01;19.63;7.23;
12542;PMS3003;6337;49.556;25.594;2023-09-19T08:42:28;8.90;4.63;
12542;PMS3003;6337;49.556;25.594;2023-09-19T08:44:55;14.17;5.80;
12542;PMS3003;6337;49.556;25.594;2023-09-19T08:47:29;11.30;6.87;
12542;PMS3003;6337;49.556;25.594;2023-09-19T08:50:04;7.53;5.90;
12542;PMS3003;6337;49.556;25.594;2023-09-19T08:52:41;9.17;5.77;
12542;PMS3003;6337;49.556;25.594;2023-09-19T08:55:11;13.80;6.60;
12542;PMS3003;6337;49.556;25.594;2023-09-19T08:57:45;15.57;5.40;
12542;PMS3003;6337;49.556;25.594;2023-09-19T09:00:14;9.00;6.10;
12542;PMS3003;6337;49.556;25.594;2023-09-19T09:02:44;12.60;5.63;
12542;PMS3003;6337;49.556;25.594;2023-09-19T09:05:19;5.80;4.97;
12542;PMS3003;6337;49.556;25.594;2023-09-19T09:07:51;28.63;5.97;
12542;PMS3003;6337;49.556;25.594;2023-09-19T09:10:20;20.03;8.40;
12542;PMS3003;6337;49.556;25.594;2023-09-19T09:12:48;11.83;5.47;
12542;PMS3003;6337;49.556;25.594;2023-09-19T09:15:16;6.90;5.17;
12542;PMS3003;6337;49.556;25.594;2023-09-19T09:17:46;19.03;6.10;
12542;PMS3003;6337;49.556;25.594;2023-09-19T09:20:16;6.93;5.70;
12542;PMS3003;6337;49.556;25.594;2023-09-19T09:25:46;6.40;5.47;
12542;PMS3003;6337;49.556;25.594;2023-09-19T09:28:19;6.50;5.80;
12542;PMS3003;6337;49.556;25.594;2023-09-19T09:30:47;11.13;5.00;
12542;PMS3003;6337;49.556;25.594;2023-09-19T09:33:15;15.40;5.97;
12542;PMS3003;6337;49.556;25.594;2023-09-19T09:35:50;19.67;6.10;
12542;PMS3003;6337;49.556;25.594;2023-09-19T09:38:24;11.70;5.30;
12542;PMS3003;6337;49.556;25.594;2023-09-19T09:40:58;14.83;5.37;
12542;PMS3003;6337;49.556;25.594;2023-09-19T09:43:28;16.50;5.80;
12542;PMS3003;6337;49.556;25.594;2023-09-19T09:46:05;7.00;5.30;
12542;PMS3003;6337;49.556;25.594;2023-09-19T09:48:58;11.40;5.80;
12542;PMS3003;6337;49.556;25.594;2023-09-19T09:51:43;10.03;5.87;
12542;PMS3003;6337;49.556;25.594;2023-09-19T09:54:27;10.33;5.70;
12542;PMS3003;6337;49.556;25.594;2023-09-19T09:57:03;8.77;5.90;
12542;PMS3003;6337;49.556;25.594;2023-09-19T09:59:47;12.17;6.57;
12542;PMS3003;6337;49.556;25.594;2023-09-19T10:02:19;8.33;6.33;
12542;PMS3003;6337;49.556;25.594;2023-09-19T10:04:50;12.60;6.83;
12542;PMS3003;6337;49.556;25.594;2023-09-19T10:07:26;22.83;9.90;
12542;PMS3003;6337;49.556;25.594;2023-09-19T10:10:07;16.50;8.73;
12542;PMS3003;6337;49.556;25.594;2023-09-19T10:12:48;22.83;9.47;
12542;PMS3003;6337;49.556;25.594;2023-09-19T10:15:16;15.13;8.90;
12542;PMS3003;6337;49.556;25.594;2023-09-19T10:17:46;12.03;7.87;
12542;PMS3003;6337;49.556;25.594;2023-09-19T10:20:13;22.63;7.20;
12542;PMS3003;6337;49.556;25.594;2023-09-19T10:23:04;15.40;9.13;
12542;PMS3003;6337;49.556;25.594;2023-09-19T10:25:40;13.10;8.47;
12542;PMS3003;6337;49.556;25.594;2023-09-19T10:28:10;17.57;8.33;
12542;PMS3003;6337;49.556;25.594;2023-09-19T10:30:41;9.67;8.50;
12542;PMS3003;6337;49.556;25.594;2023-09-19T10:33:18;9.93;7.40;
12542;PMS3003;6337;49.556;25.594;2023-09-19T10:35:51;13.13;8.03;
12542;PMS3003;6337;49.556;25.594;2023-09-19T10:38:19;18.83;8.50;
12542;PMS3003;6337;49.556;25.594;2023-09-19T10:40:53;15.33;7.37;
12542;PMS3003;6337;49.556;25.594;2023-09-19T10:43:25;18.67;8.70;
12542;PMS3003;6337;49.556;25.594;2023-09-19T10:46:00;17.70;8.43;
12542;PMS3003;6337;49.556;25.594;2023-09-19T10:48:29;12.03;8.00;
12542;PMS3003;6337;49.556;25.594;2023-09-19T10:51:00;17.60;7.97;
12542;PMS3003;6337;49.556;25.594;2023-09-19T10:53:38;15.77;8.57;
12542;PMS3003;6337;49.556;25.594;2023-09-19T10:56:13;21.27;9.87;
12542;PMS3003;6337;49.556;25.594;2023-09-19T10:58:45;14.40;8.57;
12542;PMS3003;6337;49.556;25.594;2023-09-19T11:01:14;27.53;8.63;
12542;PMS3003;6337;49.556;25.594;2023-09-19T11:03:42;25.17;9.70;
12542;PMS3003;6337;49.556;25.594;2023-09-19T11:06:10;16.57;10.20;
12542;PMS3003;6337;49.556;25.594;2023-09-19T11:08:57;27.10;10.97;
12542;PMS3003;6337;49.556;25.594;2023-09-19T11:11:56;20.63;10.07;
12542;PMS3003;6337;49.556;25.594;2023-09-19T11:14:37;13.87;9.70;
12542;PMS3003;6337;49.556;25.594;2023-09-19T11:23:20;19.97;11.53;
12542;PMS3003;6337;49.556;25.594;2023-09-19T11:25:58;18.20;9.83;
12542;PMS3003;6337;49.556;25.594;2023-09-19T11:28:42;14.50;9.30;
12542;PMS3003;6337;49.556;25.594;2023-09-19T11:34:39;13.80;8.63;
12542;PMS3003;6337;49.556;25.594;2023-09-19T11:40:36;14.10;8.53;
12542;PMS3003;6337;49.556;25.594;2023-09-19T11:46:04;12.77;8.97;
12542;PMS3003;6337;49.556;25.594;2023-09-19T11:48:32;17.70;9.83;
12542;PMS3003;6337;49.556;25.594;2023-09-19T11:51:13;26.30;11.80;
12542;PMS3003;6337;49.556;25.594;2023-09-19T11:53:47;22.83;12.27;
12542;PMS3003;6337;49.556;25.594;2023-09-19T11:56:16;16.70;11.60;
12542;PMS3003;6337;49.556;25.594;2023-09-19T11:58:48;18.80;12.10;
12542;PMS3003;6337;49.556;25.594;2023-09-19T12:01:32;21.17;12.93;
12542;PMS3003;6337;49.556;25.594;2023-09-19T12:04:00;23.00;13.47;
12542;PMS3003;6337;49.556;25.594;2023-09-19T12:06:29;26.13;16.00;
12542;PMS3003;6337;49.556;25.594;2023-09-19T12:08:58;24.40;16.27;
12542;PMS3003;6337;49.556;25.594;2023-09-19T12:11:27;28.53;17.00;
12542;PMS3003;6337;49.556;25.594;2023-09-19T12:13:58;26.20;16.90;
12542;PMS3003;6337;49.556;25.594;2023-09-19T12:16:29;28.77;18.30;
12542;PMS3003;6337;49.556;25.594;2023-09-19T12:18:58;22.67;15.63;
12542;PMS3003;6337;49.556;25.594;2023-09-19T12:21:53;26.03;16.57;
12542;PMS3003;6337;49.556;25.594;2023-09-19T12:24:23;24.20;16.40;
12542;PMS3003;6337;49.556;25.594;2023-09-19T12:26:56;29.73;16.67;
12542;PMS3003;6337;49.556;25.594;2023-09-19T12:29:27;26.50;14.60;
12542;PMS3003;6337;49.556;25.594;2023-09-19T12:31:58;26.27;15.37;
12542;PMS3003;6337;49.556;25.594;2023-09-19T12:34:29;32.33;15.30;
12542;PMS3003;6337;49.556;25.594;2023-09-19T12:37:06;22.83;13.63;
12542;PMS3003;6337;49.556;25.594;2023-09-19T12:39:38;25.80;14.30;
12542;PMS3003;6337;49.556;25.594;2023-09-19T12:42:08;20.07;13.67;
12542;PMS3003;6337;49.556;25.594;2023-09-19T12:44:40;19.60;14.60;
12542;PMS3003;6337;49.556;25.594;2023-09-19T12:50:11;26.80;16.40;
12542;PMS3003;6337;49.556;25.594;2023-09-19T12:52:50;22.43;16.10;
12542;PMS3003;6337;49.556;25.594;2023-09-19T12:55:22;25.43;16.57;
12542;PMS3003;6337;49.556;25.594;2023-09-19T12:57:57;30.90;16.77;
12542;PMS3003;6337;49.556;25.594;2023-09-19T13:00:35;27.67;16.17;
12542;PMS3003;6337;49.556;25.594;2023-09-19T13:03:13;22.13;16.67;
12542;PMS3003;6337;49.556;25.594;2023-09-19T13:05:50;25.13;16.47;
12542;PMS3003;6337;49.556;25.594;2023-09-19T13:08:20;23.30;16.77;
12542;PMS3003;6337;49.556;25.594;2023-09-19T13:11:05;31.50;18.47;
12542;PMS3003;6337;49.556;25.594;2023-09-19T13:13:38;26.43;18.97;
12542;PMS3003;6337;49.556;25.594;2023-09-19T13:16:06;20.60;16.60;
12542;PMS3003;6337;49.556;25.594;2023-09-19T13:18:45;28.23;13.90;
12542;PMS3003;6337;49.556;25.594;2023-09-19T13:21:26;22.97;15.73;
12542;PMS3003;6337;49.556;25.594;2023-09-19T13:23:56;22.37;15.43;
12542;PMS3003;6337;49.556;25.594;2023-09-19T13:26:51;20.57;13.77;
12542;PMS3003;6337;49.556;25.594;2023-09-19T13:29:18;18.93;13.67;
12542;PMS3003;6337;49.556;25.594;2023-09-19T13:31:45;19.50;13.60;
12542;PMS3003;6337;49.556;25.594;2023-09-19T13:34:15;19.00;14.93;
12542;PMS3003;6337;49.556;25.594;2023-09-19T13:36:43;15.50;11.43;
12542;PMS3003;6337;49.556;25.594;2023-09-19T13:39:14;17.73;12.83;
12542;PMS3003;6337;49.556;25.594;2023-09-19T13:41:42;21.63;11.63;
12542;PMS3003;6337;49.556;25.594;2023-09-19T13:44:11;15.17;12.47;
12542;PMS3003;6337;49.556;25.594;2023-09-19T13:46:39;15.83;10.60;
12542;PMS3003;6337;49.556;25.594;2023-09-19T13:49:10;20.27;12.20;
12542;PMS3003;6337;49.556;25.594;2023-09-19T13:51:39;17.57;11.57;
12542;PMS3003;6337;49.556;25.594;2023-09-19T13:54:08;24.30;13.97;
12542;PMS3003;6337;49.556;25.594;2023-09-19T13:56:38;14.10;11.13;
12542;PMS3003;6337;49.556;25.594;2023-09-19T13:59:05;19.50;11.93;
12542;PMS3003;6337;49.556;25.594;2023-09-19T14:01:32;18.60;11.60;
12542;PMS3003;6337;49.556;25.594;2023-09-19T14:04:00;18.43;11.10;
12542;PMS3003;6337;49.556;25.594;2023-09-19T14:06:27;16.37;10.53;
12542;PMS3003;6337;49.556;25.594;2023-09-19T14:08:57;14.47;10.23;
12542;PMS3003;6337;49.556;25.594;2023-09-19T14:11:26;18.00;11.43;
12542;PMS3003;6337;49.556;25.594;2023-09-19T14:13:53;17.63;10.70;
12542;PMS3003;6337;49.556;25.594;2023-09-19T14:16:20;20.47;10.57;
12542;PMS3003;6337;49.556;25.594;2023-09-19T14:18:49;12.63;11.33;
12542;PMS3003;6337;49.556;25.594;2023-09-19T14:21:17;19.93;10.03;
12542;PMS3003;6337;49.556;25.594;2023-09-19T14:23:44;13.03;11.00;
12542;PMS3003;6337;49.556;25.594;2023-09-19T14:26:13;22.10;11.90;
12542;PMS3003;6337;49.556;25.594;2023-09-19T14:28:41;23.97;12.33;
12542;PMS3003;6337;49.556;25.594;2023-09-19T14:31:10;15.53;11.57;
12542;PMS3003;6337;49.556;25.594;2023-09-19T14:33:38;19.10;10.50;
12542;PMS3003;6337;49.556;25.594;2023-09-19T14:36:08;11.30;9.67;
12542;PMS3003;6337;49.556;25.594;2023-09-19T14:38:37;18.87;9.63;
12542;PMS3003;6337;49.556;25.594;2023-09-19T14:41:05;17.40;8.80;
12542;PMS3003;6337;49.556;25.594;2023-09-19T14:43:35;15.80;9.77;
12542;PMS3003;6337;49.556;25.594;2023-09-19T14:46:04;15.87;10.93;
12542;PMS3003;6337;49.556;25.594;2023-09-19T14:48:34;12.23;9.33;
12542;PMS3003;6337;49.556;25.594;2023-09-19T14:51:03;12.63;8.70;
12542;PMS3003;6337;49.556;25.594;2023-09-19T14:53:32;13.80;10.10;
12542;PMS3003;6337;49.556;25.594;2023-09-19T14:55:59;16.53;8.87;
12542;PMS3003;6337;49.556;25.594;2023-09-19T14:58:28;26.33;9.80;
12542;PMS3003;6337;49.556;25.594;2023-09-19T15:01:02;19.53;11.00;
12542;PMS3003;6337;49.556;25.594;2023-09-19T15:03:31;23.23;8.73;
12542;PMS3003;6337;49.556;25.594;2023-09-19T15:06:00;19.10;9.03;
12542;PMS3003;6337;49.556;25.594;2023-09-19T15:08:27;11.03;8.80;
12542;PMS3003;6337;49.556;25.594;2023-09-19T15:10:54;15.40;11.03;
12542;PMS3003;6337;49.556;25.594;2023-09-19T15:13:23;15.57;9.97;
12542;PMS3003;6337;49.556;25.594;2023-09-19T15:15:57;12.27;9.83;
12542;PMS3003;6337;49.556;25.594;2023-09-19T15:18:27;15.37;9.57;
12542;PMS3003;6337;49.556;25.594;2023-09-19T15:20:55;13.87;9.57;
12542;PMS3003;6337;49.556;25.594;2023-09-19T15:23:22;13.03;10.57;
12542;PMS3003;6337;49.556;25.594;2023-09-19T15:25:51;14.50;10.73;
12542;PMS3003;6337;49.556;25.594;2023-09-19T15:28:21;17.77;11.40;
12542;PMS3003;6337;49.556;25.594;2023-09-19T15:30:48;17.90;11.90;
12542;PMS3003;6337;49.556;25.594;2023-09-19T15:33:16;20.07;11.10;
12542;PMS3003;6337;49.556;25.594;2023-09-19T15:35:45;18.50;11.40;
12542;PMS3003;6337;49.556;25.594;2023-09-19T15:38:12;19.33;10.50;
12542;PMS3003;6337;49.556;25.594;2023-09-19T15:40:45;24.63;10.10;
12542;PMS3003;6337;49.556;25.594;2023-09-19T15:43:13;20.73;11.47;